Time;durP1;ratioP1;P1;durP2;ratioP2;P2;SDS_P1;SDS_P2;PMS_P1;PMS_P2;Temp;Humidity;BMP_temperature;BMP_pressure;BME280_temperature;BME280_humidity;BME280_pressure;Samples;Min_cycle;Max_cycle;Signal;HPM_P1;HPM_P2
2021/11/20 00:02:25;;;;;;;;;;;12.70;58.20;;;;;;5093350;28;20281;-63
2021/11/20 00:04:51;;;;;;;;;;;12.70;58.10;;;;;;5093419;28;19918;-63
2021/11/20 00:07:18;;;;;;;;;;;12.70;58.10;;;;;;5091630;28;19912;-63
2021/11/20 00:09:44;;;;;;;;;;;12.70;58.10;;;;;;5093343;28;19935;-64
2021/11/20 00:12:12;;;;;;;;;;;12.70;58.10;;;;;;5093377;28;19958;-63
2021/11/20 00:14:37;;;;;;;;;;;12.70;58.10;;;;;;5092986;28;20011;-63
2021/11/20 00:17:04;;;;;;;;;;;12.70;58.10;;;;;;5093175;28;19995;-63
2021/11/20 00:19:30;;;;;;;;;;;12.70;58.10;;;;;;5093179;28;19908;-64
2021/11/20 00:22:02;;;;;;;;;;;12.80;58.20;;;;;;5086589;28;20018;-64
2021/11/20 00:24:30;;;;;;;;;;;12.80;58.20;;;;;;5092846;28;20351;-63
2021/11/20 00:26:56;;;;;;;;;;;12.80;58.10;;;;;;5086332;28;19909;-64
2021/11/20 00:29:27;;;;;;;;;;;12.80;58.10;;;;;;5052726;28;19916;-63
2021/11/20 00:31:57;;;;;;;;;;;12.80;58.10;;;;;;5052646;28;19988;-64
2021/11/20 00:34:27;;;;;;;;;;;12.80;58.00;;;;;;5052864;28;19947;-63
2021/11/20 00:36:53;;;;;;;;;;;12.80;58.10;;;;;;5075356;28;20059;-63
2021/11/20 00:39:21;;;;;;;;;;;12.80;58.60;;;;;;5092885;28;19920;-64
2021/11/20 00:41:46;;;;;;;;;;;12.90;58.10;;;;;;5092705;28;20332;-64
2021/11/20 00:44:12;;;;;;;;;;;12.90;58.00;;;;;;5092427;28;20007;-64
2021/11/20 00:46:38;;;;;;;;;;;12.90;58.00;;;;;;5078711;28;19909;-63
2021/11/20 00:49:04;;;;;;;;;;;12.90;58.00;;;;;;5051795;28;19919;-64
2021/11/20 00:51:30;;;;;;;;;;;12.90;58.00;;;;;;5082457;28;19913;-64
2021/11/20 00:53:56;;;;;;;;;;;12.90;57.90;;;;;;5092413;28;19919;-64
2021/11/20 00:56:23;;;;;;;;;;;12.90;57.90;;;;;;5092430;28;19908;-64
2021/11/20 00:58:49;;;;;;;;;;;12.90;57.90;;;;;;5092252;28;20406;-64
2021/11/20 01:01:17;;;;;;;;;;;13.00;57.90;;;;;;5079618;28;20003;-63
2021/11/20 01:03:43;;;;;;;;;;;12.90;57.90;;;;;;5072030;28;19912;-64
2021/11/20 01:06:09;;;;;;;;;;;12.90;57.90;;;;;;5079071;28;19959;-64
2021/11/20 01:08:37;;;;;;;;;;;12.90;57.90;;;;;;5092293;28;19953;-64
2021/11/20 01:11:23;;;;;;;;;;;12.90;57.90;;;;;;5092177;28;20258;-64
2021/11/20 01:13:49;;;;;;;;;;;13.00;57.90;;;;;;5091326;28;19919;-65
2021/11/20 01:16:16;;;;;;;;;;;12.90;57.90;;;;;;5090445;28;19947;-64
2021/11/20 01:18:43;;;;;;;;;;;12.90;57.90;;;;;;5091996;28;19908;-64
2021/11/20 01:21:09;;;;;;;;;;;12.90;57.90;;;;;;5072363;28;19971;-64
2021/11/20 01:23:35;;;;;;;;;;;12.90;57.90;;;;;;5051633;28;19913;-64
2021/11/20 01:26:00;;;;;;;;;;;12.90;57.90;;;;;;5051664;28;19938;-64
2021/11/20 01:28:27;;;;;;;;;;;12.80;57.80;;;;;;5051438;28;19916;-64
2021/11/20 01:30:53;;;;;;;;;;;12.90;57.90;;;;;;5051442;28;19974;-64
2021/11/20 01:33:19;;;;;;;;;;;12.80;57.90;;;;;;5072445;28;19916;-64
2021/11/20 01:35:45;;;;;;;;;;;12.80;57.90;;;;;;5071615;28;19957;-63
2021/11/20 01:38:11;;;;;;;;;;;12.80;57.90;;;;;;5071636;28;19962;-64
2021/11/20 01:40:38;;;;;;;;;;;12.70;57.80;;;;;;5070225;28;19908;-64
2021/11/20 01:43:04;;;;;;;;;;;12.70;57.80;;;;;;5071424;28;19912;-64
2021/11/20 01:45:33;;;;;;;;;;;12.70;57.90;;;;;;5071196;28;20399;-64
2021/11/20 01:48:18;;;;;;;;;;;12.70;57.90;;;;;;5084981;28;19912;-64
2021/11/20 01:50:44;;;;;;;;;;;12.70;58.00;;;;;;5091689;28;19908;-64
2021/11/20 01:53:21;;;;;;;;;;;12.70;58.00;;;;;;5091665;28;19911;-64
2021/11/20 01:56:07;;;;;;;;;;;12.70;58.10;;;;;;5092063;28;20288;-64
2021/11/20 01:58:41;;;;;;;;;;;12.70;58.10;;;;;;5080423;28;19912;-64
2021/11/20 02:01:08;;;;;;;;;;;12.60;58.20;;;;;;5084093;28;19999;-64
2021/11/20 02:03:38;;;;;;;;;;;12.60;58.30;;;;;;5071193;28;19920;-64
2021/11/20 02:06:04;;;;;;;;;;;12.60;58.30;;;;;;5071130;28;19915;-64
2021/11/20 02:08:42;;;;;;;;;;;12.60;58.40;;;;;;5071191;28;19999;-64
2021/11/20 02:11:13;;;;;;;;;;;12.60;58.60;;;;;;5076559;28;20360;-64
2021/11/20 02:13:38;;;;;;;;;;;12.50;58.60;;;;;;5091154;28;19971;-64
2021/11/20 02:16:15;;;;;;;;;;;12.50;58.80;;;;;;5072023;28;19959;-64
2021/11/20 02:18:45;;;;;;;;;;;12.50;58.80;;;;;;5051170;28;19915;-65
2021/11/20 02:21:14;;;;;;;;;;;12.40;58.90;;;;;;5051103;28;19912;-64
2021/11/20 02:23:40;;;;;;;;;;;12.40;59.00;;;;;;5051036;28;19913;-64
2021/11/20 02:26:05;;;;;;;;;;;12.40;59.10;;;;;;5053505;28;20297;-64
2021/11/20 02:28:31;;;;;;;;;;;12.40;59.70;;;;;;5070966;28;20393;-64
2021/11/20 02:30:58;;;;;;;;;;;12.40;59.20;;;;;;5071093;28;19912;-65
2021/11/20 02:33:35;;;;;;;;;;;12.40;59.30;;;;;;5069747;28;20427;-65
2021/11/20 02:36:03;;;;;;;;;;;12.40;59.30;;;;;;5071913;28;19912;-64
2021/11/20 02:38:30;;;;;;;;;;;12.40;59.40;;;;;;5071033;28;19920;-64
2021/11/20 02:40:57;;;;;;;;;;;12.30;59.40;;;;;;5071060;28;19913;-64
2021/11/20 02:43:23;;;;;;;;;;;12.30;59.50;;;;;;5071631;28;19970;-64
2021/11/20 02:45:50;;;;;;;;;;;12.30;59.50;;;;;;5081066;28;20006;-64
2021/11/20 02:48:16;;;;;;;;;;;12.30;59.60;;;;;;5091157;28;19995;-64
2021/11/20 02:50:48;;;;;;;;;;;12.30;59.70;;;;;;5091114;28;19908;-65
2021/11/20 02:53:16;;;;;;;;;;;12.30;59.80;;;;;;5091035;28;19909;-64
2021/11/20 02:55:45;;;;;;;;;;;12.30;59.80;;;;;;5091055;28;19908;-64
2021/11/20 02:58:11;;;;;;;;;;;12.30;59.80;;;;;;5089795;28;20015;-64
2021/11/20 03:00:36;;;;;;;;;;;12.30;59.90;;;;;;5084961;28;20016;-64
2021/11/20 03:03:02;;;;;;;;;;;12.20;59.90;;;;;;5070737;28;19923;-64
2021/11/20 03:05:28;;;;;;;;;;;12.20;59.90;;;;;;5071003;28;19912;-64
2021/11/20 03:07:53;;;;;;;;;;;12.20;60.00;;;;;;5066553;28;19955;-64
2021/11/20 03:10:19;;;;;;;;;;;12.20;60.10;;;;;;5050645;28;19924;-64
2021/11/20 03:12:45;;;;;;;;;;;12.30;60.20;;;;;;5054030;28;19905;-64
2021/11/20 03:15:11;;;;;;;;;;;12.20;60.10;;;;;;5053734;28;19951;-64
2021/11/20 03:17:37;;;;;;;;;;;12.30;60.20;;;;;;5093984;28;19916;-65
2021/11/20 03:20:04;;;;;;;;;;;12.30;60.30;;;;;;5094163;28;19909;-65
2021/11/20 03:22:40;;;;;;;;;;;12.40;60.40;;;;;;5094110;28;19951;-64
2021/11/20 03:25:06;;;;;;;;;;;12.40;60.30;;;;;;5094106;28;19958;-64
2021/11/20 03:27:32;;;;;;;;;;;12.30;60.20;;;;;;5077349;28;20378;-64
2021/11/20 03:29:57;;;;;;;;;;;12.30;60.30;;;;;;5052422;28;19909;-64
2021/11/20 03:32:23;;;;;;;;;;;12.30;60.30;;;;;;5084952;28;19915;-65
2021/11/20 03:34:48;;;;;;;;;;;12.30;60.40;;;;;;5093841;28;20269;-64
2021/11/20 03:37:14;;;;;;;;;;;12.30;60.40;;;;;;5093875;28;19912;-64
2021/11/20 03:39:40;;;;;;;;;;;12.30;60.60;;;;;;5093889;28;20284;-64
2021/11/20 03:42:06;;;;;;;;;;;12.30;60.50;;;;;;5084958;28;20342;-65
2021/11/20 03:44:32;;;;;;;;;;;12.30;60.60;;;;;;5053248;28;20285;-64
2021/11/20 03:46:58;;;;;;;;;;;12.30;60.60;;;;;;5066762;28;19912;-64
2021/11/20 03:49:23;;;;;;;;;;;12.30;60.60;;;;;;5073252;28;19947;-64
2021/11/20 03:51:49;;;;;;;;;;;12.30;60.60;;;;;;5073383;28;19912;-65
2021/11/20 03:54:15;;;;;;;;;;;12.30;60.60;;;;;;5073208;28;19923;-64
2021/11/20 03:56:40;;;;;;;;;;;12.30;60.60;;;;;;5073279;28;19919;-64
2021/11/20 03:59:06;;;;;;;;;;;12.30;60.70;;;;;;5071898;28;19912;-64
2021/11/20 04:01:32;;;;;;;;;;;12.30;60.70;;;;;;5074058;28;19915;-64
2021/11/20 04:03:58;;;;;;;;;;;12.20;60.70;;;;;;5073089;28;19917;-64
2021/11/20 04:06:24;;;;;;;;;;;12.20;60.80;;;;;;5073131;28;19908;-64
2021/11/20 04:08:51;;;;;;;;;;;12.20;60.80;;;;;;5060821;28;19911;-64
2021/11/20 04:11:20;;;;;;;;;;;12.20;60.90;;;;;;5053052;28;19956;-64
2021/11/20 04:13:46;;;;;;;;;;;12.20;61.00;;;;;;5052948;28;19909;-64
2021/11/20 04:16:12;;;;;;;;;;;12.10;61.00;;;;;;5051455;28;19920;-64
2021/11/20 04:18:38;;;;;;;;;;;12.10;61.00;;;;;;5079444;28;19912;-65
2021/11/20 04:21:05;;;;;;;;;;;12.10;61.10;;;;;;5093077;28;20487;-64
2021/11/20 04:23:31;;;;;;;;;;;12.10;61.20;;;;;;5091835;28;19959;-65
2021/11/20 04:25:57;;;;;;;;;;;12.10;61.20;;;;;;5092954;28;19944;-65
2021/11/20 04:28:22;;;;;;;;;;;12.10;61.30;;;;;;5062164;28;19909;-64
2021/11/20 04:30:48;;;;;;;;;;;12.00;61.30;;;;;;5057351;28;19991;-65
2021/11/20 04:33:14;;;;;;;;;;;12.00;61.40;;;;;;5073777;28;19958;-65
2021/11/20 04:35:39;;;;;;;;;;;12.00;61.50;;;;;;5072718;28;19962;-65
2021/11/20 04:38:06;;;;;;;;;;;12.00;61.50;;;;;;5072441;28;19999;-65
2021/11/20 04:40:31;;;;;;;;;;;12.00;61.50;;;;;;5071964;28;19916;-65
2021/11/20 04:42:57;;;;;;;;;;;12.00;61.50;;;;;;5076335;28;19969;-64
2021/11/20 04:45:24;;;;;;;;;;;12.00;61.60;;;;;;5092395;28;19912;-65
2021/11/20 04:47:50;;;;;;;;;;;12.10;61.80;;;;;;5092583;28;20517;-65
2021/11/20 04:50:16;;;;;;;;;;;12.10;61.80;;;;;;5092452;28;19987;-65
2021/11/20 04:52:42;;;;;;;;;;;12.10;62.60;;;;;;5089869;28;19908;-65
2021/11/20 04:55:09;;;;;;;;;;;12.10;61.90;;;;;;5072368;28;20388;-65
2021/11/20 04:57:35;;;;;;;;;;;12.10;61.90;;;;;;5072071;28;19927;-65
2021/11/20 05:00:00;;;;;;;;;;;12.10;62.00;;;;;;5072196;28;20349;-65
2021/11/20 05:02:26;;;;;;;;;;;12.10;61.90;;;;;;5071884;28;19915;-65
2021/11/20 05:04:52;;;;;;;;;;;12.10;62.00;;;;;;5092034;28;20636;-65
2021/11/20 05:07:18;;;;;;;;;;;12.10;61.90;;;;;;5092262;28;19908;-65
2021/11/20 05:09:43;;;;;;;;;;;12.10;62.10;;;;;;5052909;28;19909;-65
2021/11/20 05:12:09;;;;;;;;;;;12.10;62.00;;;;;;5052003;28;19909;-65
2021/11/20 05:14:36;;;;;;;;;;;12.10;62.10;;;;;;5086250;28;19924;-66
2021/11/20 05:17:02;;;;;;;;;;;12.10;62.10;;;;;;5091989;28;19940;-65
2021/11/20 05:19:27;;;;;;;;;;;12.00;62.00;;;;;;5091897;28;19990;-65
2021/11/20 05:21:53;;;;;;;;;;;12.00;62.10;;;;;;5092104;28;20417;-65
2021/11/20 05:24:19;;;;;;;;;;;12.00;62.10;;;;;;5076642;28;19999;-65
2021/11/20 05:26:45;;;;;;;;;;;12.00;62.10;;;;;;5071272;28;19919;-65
2021/11/20 05:29:23;;;;;;;;;;;12.00;62.20;;;;;;5071604;28;20335;-65
2021/11/20 05:31:49;;;;;;;;;;;12.00;62.20;;;;;;5071774;28;20319;-65
2021/11/20 05:34:14;;;;;;;;;;;12.00;62.20;;;;;;5084610;28;19916;-65
2021/11/20 05:36:40;;;;;;;;;;;12.00;62.30;;;;;;5091752;28;19908;-65
2021/11/20 05:39:06;;;;;;;;;;;12.00;62.20;;;;;;5086249;28;19908;-65
2021/11/20 05:41:31;;;;;;;;;;;12.00;62.30;;;;;;5051469;28;19909;-66
2021/11/20 05:44:00;;;;;;;;;;;12.00;62.30;;;;;;5073410;28;19923;-66
2021/11/20 05:46:26;;;;;;;;;;;12.00;62.30;;;;;;5091832;28;19908;-66
2021/11/20 05:48:52;;;;;;;;;;;12.00;62.30;;;;;;5091713;28;20281;-66
2021/11/20 05:51:18;;;;;;;;;;;12.10;62.40;;;;;;5091776;28;19908;-64
2021/11/20 05:53:44;;;;;;;;;;;12.10;62.50;;;;;;5082310;28;20425;-65
2021/11/20 05:56:10;;;;;;;;;;;12.10;62.40;;;;;;5071460;28;20007;-66
2021/11/20 05:58:36;;;;;;;;;;;12.10;62.40;;;;;;5071332;28;19909;-65
2021/11/20 06:01:06;;;;;;;;;;;12.10;62.40;;;;;;5071274;28;19955;-65
2021/11/20 06:03:32;;;;;;;;;;;12.10;62.40;;;;;;5077431;28;19915;-64
2021/11/20 06:05:57;;;;;;;;;;;12.10;62.40;;;;;;5091383;28;20365;-65
2021/11/20 06:08:24;;;;;;;;;;;12.10;62.40;;;;;;5074454;28;19908;-65
2021/11/20 06:10:50;;;;;;;;;;;12.10;62.40;;;;;;5051255;28;20436;-65
2021/11/20 06:13:16;;;;;;;;;;;12.10;62.40;;;;;;5059561;28;19982;-65
2021/11/20 06:15:42;;;;;;;;;;;12.10;62.40;;;;;;5090907;28;19970;-65
2021/11/20 06:18:09;;;;;;;;;;;12.10;62.40;;;;;;5091161;28;19912;-64
2021/11/20 06:20:35;;;;;;;;;;;12.10;62.50;;;;;;5091204;28;19915;-65
2021/11/20 06:23:00;;;;;;;;;;;12.10;62.60;;;;;;5088912;28;19960;-65
2021/11/20 06:25:27;;;;;;;;;;;12.20;62.60;;;;;;5070807;28;19913;-64
2021/11/20 06:27:52;;;;;;;;;;;12.20;62.60;;;;;;5071184;28;20258;-65
2021/11/20 06:30:21;;;;;;;;;;;12.20;62.70;;;;;;5070936;28;19909;-65
2021/11/20 06:32:47;;;;;;;;;;;12.20;62.60;;;;;;5074089;28;19919;-64
2021/11/20 06:35:13;;;;;;;;;;;12.20;62.60;;;;;;5091003;28;19912;-65
2021/11/20 06:37:40;;;;;;;;;;;12.20;62.60;;;;;;5086181;28;19915;-65
2021/11/20 06:40:08;;;;;;;;;;;12.20;62.70;;;;;;5050867;28;19909;-65
2021/11/20 06:42:33;;;;;;;;;;;12.20;62.70;;;;;;5054175;28;19917;-64
2021/11/20 06:44:59;;;;;;;;;;;12.20;62.70;;;;;;5090995;28;20426;-65
2021/11/20 06:47:25;;;;;;;;;;;12.20;62.80;;;;;;5094195;28;19915;-65
2021/11/20 06:49:50;;;;;;;;;;;12.20;62.80;;;;;;5094579;28;19948;-65
2021/11/20 06:52:16;;;;;;;;;;;12.30;62.80;;;;;;5094750;28;19908;-64
2021/11/20 06:54:42;;;;;;;;;;;12.30;62.70;;;;;;5075130;28;19951;-65
2021/11/20 06:57:10;;;;;;;;;;;12.30;62.70;;;;;;5074511;28;19912;-65
2021/11/20 07:02:14;;;;;;;;;;;12.20;62.60;;;;;;5074548;28;19909;-66
2021/11/20 07:04:39;;;;;;;;;;;12.30;62.70;;;;;;5092854;28;19923;-65
2021/11/20 07:07:09;;;;;;;;;;;12.30;62.70;;;;;;5094674;28;19908;-65
2021/11/20 07:09:35;;;;;;;;;;;12.30;62.90;;;;;;5057922;28;19909;-66
2021/11/20 07:12:00;;;;;;;;;;;12.30;62.90;;;;;;5054223;28;20053;-65
2021/11/20 07:14:26;;;;;;;;;;;12.30;62.90;;;;;;5086939;28;19947;-65
2021/11/20 07:16:52;;;;;;;;;;;12.30;62.80;;;;;;5094449;28;19912;-65
2021/11/20 07:19:18;;;;;;;;;;;12.40;62.80;;;;;;5094330;28;19908;-65
2021/11/20 07:21:44;;;;;;;;;;;12.40;62.80;;;;;;5094371;28;19942;-65
2021/11/20 07:24:11;;;;;;;;;;;12.40;62.80;;;;;;5079759;28;19920;-65
2021/11/20 07:26:36;;;;;;;;;;;12.40;62.90;;;;;;5073450;28;19916;-65
2021/11/20 07:29:03;;;;;;;;;;;12.40;63.00;;;;;;5073934;28;19916;-65
2021/11/20 07:31:28;;;;;;;;;;;12.40;63.90;;;;;;5072580;28;19916;-65
2021/11/20 07:33:54;;;;;;;;;;;12.50;63.10;;;;;;5084690;28;19912;-65
2021/11/20 07:36:20;;;;;;;;;;;12.50;63.10;;;;;;5087824;28;19915;-64
2021/11/20 07:38:51;;;;;;;;;;;12.50;63.10;;;;;;5053756;28;20321;-63
2021/11/20 07:41:17;;;;;;;;;;;12.50;63.00;;;;;;5053711;28;19913;-65
2021/11/20 07:43:43;;;;;;;;;;;12.60;63.00;;;;;;5079909;28;19920;-65
2021/11/20 07:46:10;;;;;;;;;;;12.60;63.00;;;;;;5093806;28;19915;-65
2021/11/20 07:48:37;;;;;;;;;;;12.60;63.10;;;;;;5093720;28;19999;-65
2021/11/20 07:51:03;;;;;;;;;;;12.70;63.10;;;;;;5093550;28;19940;-65
2021/11/20 07:53:29;;;;;;;;;;;12.70;63.00;;;;;;5080958;28;19962;-65
2021/11/20 07:55:55;;;;;;;;;;;12.70;63.00;;;;;;5073494;28;19913;-65
2021/11/20 07:58:21;;;;;;;;;;;12.70;62.80;;;;;;5073418;28;19938;-65
2021/11/20 08:00:47;;;;;;;;;;;12.70;62.70;;;;;;5073313;28;19920;-65
2021/11/20 08:03:13;;;;;;;;;;;12.70;62.50;;;;;;5081385;28;19920;-65
2021/11/20 08:05:40;;;;;;;;;;;12.80;62.60;;;;;;5093745;28;19912;-65
2021/11/20 08:08:05;;;;;;;;;;;12.80;62.70;;;;;;5081559;28;20366;-65
2021/11/20 08:10:32;;;;;;;;;;;12.80;62.60;;;;;;5053149;28;19916;-65
2021/11/20 08:12:58;;;;;;;;;;;12.80;62.60;;;;;;5065508;28;20306;-65
2021/11/20 08:15:24;;;;;;;;;;;12.90;62.60;;;;;;5093050;28;20420;-65
2021/11/20 08:17:50;;;;;;;;;;;12.90;62.60;;;;;;5093287;28;20365;-65
2021/11/20 08:20:17;;;;;;;;;;;12.90;62.50;;;;;;5091822;28;19930;-64
2021/11/20 08:22:43;;;;;;;;;;;13.00;62.40;;;;;;5089049;28;19916;-64
2021/11/20 08:25:11;;;;;;;;;;;13.00;62.30;;;;;;5072819;28;20003;-64
2021/11/20 08:27:36;;;;;;;;;;;13.00;62.20;;;;;;5072946;28;19908;-65
2021/11/20 08:30:04;;;;;;;;;;;13.00;62.20;;;;;;5072780;28;19919;-65
2021/11/20 08:32:29;;;;;;;;;;;13.10;62.30;;;;;;5073804;28;19913;-65
2021/11/20 08:34:56;;;;;;;;;;;13.10;62.20;;;;;;5081437;28;20012;-65
2021/11/20 08:37:22;;;;;;;;;;;13.10;62.20;;;;;;5072649;28;20516;-65
2021/11/20 08:39:47;;;;;;;;;;;13.10;62.00;;;;;;5072487;28;20007;-64
2021/11/20 08:42:15;;;;;;;;;;;13.20;62.10;;;;;;5072506;28;19966;-64
2021/11/20 08:44:41;;;;;;;;;;;13.20;62.10;;;;;;5078735;28;19986;-64
2021/11/20 08:47:08;;;;;;;;;;;13.20;62.10;;;;;;5092491;28;20280;-64
2021/11/20 08:49:33;;;;;;;;;;;13.30;62.10;;;;;;5092571;28;19912;-65
2021/11/20 08:51:59;;;;;;;;;;;13.30;62.00;;;;;;5090878;28;19938;-64
2021/11/20 08:54:25;;;;;;;;;;;13.30;62.00;;;;;;5087631;28;19916;-66
2021/11/20 08:56:54;;;;;;;;;;;13.40;62.00;;;;;;5087765;28;19919;-64
2021/11/20 08:59:22;;;;;;;;;;;13.40;61.90;;;;;;5071933;28;19913;-64
2021/11/20 09:01:53;;;;;;;;;;;13.40;61.80;;;;;;5071922;28;19908;-65
2021/11/20 09:04:21;;;;;;;;;;;13.40;61.80;;;;;;5074519;28;19919;-64
2021/11/20 09:06:49;;;;;;;;;;;13.60;61.80;;;;;;5092269;28;19923;-65
2021/11/20 09:09:29;;;;;;;;;;;13.60;61.60;;;;;;5060873;28;19909;-65
2021/11/20 09:11:58;;;;;;;;;;;13.60;61.50;;;;;;5051912;28;19912;-65
2021/11/20 09:14:35;;;;;;;;;;;13.60;61.30;;;;;;5057503;28;19922;-64
2021/11/20 09:17:01;;;;;;;;;;;13.70;61.40;;;;;;5092103;28;20007;-65
2021/11/20 09:19:28;;;;;;;;;;;13.70;62.20;;;;;;5090764;28;20018;-65
2021/11/20 09:21:55;;;;;;;;;;;13.80;61.20;;;;;;5092162;28;19908;-65
2021/11/20 09:24:20;;;;;;;;;;;13.90;61.20;;;;;;5089021;28;20788;-65
2021/11/20 09:26:46;;;;;;;;;;;14.00;61.10;;;;;;5071590;28;19952;-65
2021/11/20 09:29:13;;;;;;;;;;;14.00;60.80;;;;;;5071601;28;20312;-66
2021/11/20 09:31:40;;;;;;;;;;;14.00;60.60;;;;;;5071733;28;19920;-66
2021/11/20 09:34:07;;;;;;;;;;;14.10;60.50;;;;;;5072545;28;19917;-66
2021/11/20 09:36:34;;;;;;;;;;;14.10;60.50;;;;;;5091380;28;19912;-66
2021/11/20 09:39:00;;;;;;;;;;;14.20;60.50;;;;;;5091605;28;20003;-67
2021/11/20 09:41:44;;;;;;;;;;;14.30;60.40;;;;;;5091518;28;19912;-66
2021/11/20 09:44:10;;;;;;;;;;;14.30;60.30;;;;;;5090281;28;20526;-65
2021/11/20 09:46:38;;;;;;;;;;;14.40;60.20;;;;;;5071292;28;19909;-63
2021/11/20 09:49:06;;;;;;;;;;;14.40;60.00;;;;;;5071276;28;19936;-63
2021/11/20 09:51:39;;;;;;;;;;;14.40;59.80;;;;;;5071349;28;19934;-66
2021/11/20 09:54:13;;;;;;;;;;;14.50;59.90;;;;;;5071179;28;19908;-64
2021/11/20 09:56:44;;;;;;;;;;;14.60;60.00;;;;;;5051207;28;19913;-65
2021/11/20 09:59:32;;;;;;;;;;;14.70;59.90;;;;;;5051380;28;20328;-65
2021/11/20 10:02:07;;;;;;;;;;;14.70;59.50;;;;;;5045390;28;19923;-65
2021/11/20 10:04:53;;;;;;;;;;;14.70;59.40;;;;;;5059439;28;19917;-65
2021/11/20 10:07:24;;;;;;;;;;;14.80;59.40;;;;;;5066532;28;20006;-66
2021/11/20 10:09:55;;;;;;;;;;;14.80;59.20;;;;;;5051161;28;20000;-66
2021/11/20 10:12:23;;;;;;;;;;;14.80;59.00;;;;;;5051847;28;19916;-65
2021/11/20 10:14:59;;;;;;;;;;;14.90;58.90;;;;;;5067084;28;20262;-66
2021/11/20 10:17:33;;;;;;;;;;;14.90;58.70;;;;;;5070482;28;20325;-66
2021/11/20 10:20:19;;;;;;;;;;;14.90;58.60;;;;;;5071830;28;20357;-66
2021/11/20 10:22:51;;;;;;;;;;;15.00;58.60;;;;;;5073477;28;19936;-66
2021/11/20 10:25:20;;;;;;;;;;;15.00;58.70;;;;;;5070208;28;19913;-66
2021/11/20 10:28:01;;;;;;;;;;;15.10;58.70;;;;;;5071260;28;20282;-65
2021/11/20 10:30:34;;;;;;;;;;;15.10;58.40;;;;;;5065865;28;19916;-65
2021/11/20 10:33:15;;;;;;;;;;;15.20;58.30;;;;;;5065608;28;19909;-66
2021/11/20 10:35:40;;;;;;;;;;;15.20;58.20;;;;;;5075420;28;19962;-64
2021/11/20 10:38:12;;;;;;;;;;;15.20;58.00;;;;;;5076027;28;19944;-65
2021/11/20 10:40:51;;;;;;;;;;;15.30;57.80;;;;;;5079098;28;19982;-65
2021/11/20 10:43:17;;;;;;;;;;;15.30;57.90;;;;;;5075602;28;19912;-64
2021/11/20 10:46:06;;;;;;;;;;;15.40;57.90;;;;;;5075539;28;20270;-64
2021/11/20 10:48:31;;;;;;;;;;;15.40;57.80;;;;;;5075639;28;19908;-65
2021/11/20 10:51:29;;;;;;;;;;;15.50;57.70;;;;;;5077595;28;20623;-66
2021/11/20 10:54:20;;;;;;;;;;;15.60;57.50;;;;;;5061559;28;20361;-65
2021/11/20 10:56:55;;;;;;;;;;;15.60;57.40;;;;;;5067319;28;20025;-65
2021/11/20 10:59:39;;;;;;;;;;;15.70;57.00;;;;;;5075721;28;19919;-65
2021/11/20 11:02:23;;;;;;;;;;;15.70;56.60;;;;;;5055346;28;19962;-65
2021/11/20 11:05:18;;;;;;;;;;;15.70;56.30;;;;;;5071827;28;19912;-66
2021/11/20 11:07:52;;;;;;;;;;;15.70;56.40;;;;;;5019293;28;19997;-65
2021/11/20 11:10:20;;;;;;;;;;;15.70;56.40;;;;;;5077011;28;19917;-65
2021/11/20 11:12:58;;;;;;;;;;;15.80;56.40;;;;;;5092215;28;19913;-66
2021/11/20 11:15:29;;;;;;;;;;;15.80;56.60;;;;;;5089426;28;20365;-64
2021/11/20 11:18:13;;;;;;;;;;;15.90;56.20;;;;;;5077358;28;20312;-65
2021/11/20 11:20:45;;;;;;;;;;;15.90;55.70;;;;;;5065959;28;20378;-64
2021/11/20 11:23:20;;;;;;;;;;;15.90;55.50;;;;;;5073212;28;19916;-65
2021/11/20 11:25:48;;;;;;;;;;;15.80;55.30;;;;;;5073455;28;19908;-65
2021/11/20 11:28:33;;;;;;;;;;;15.90;55.40;;;;;;5071876;28;19912;-65
2021/11/20 11:31:22;;;;;;;;;;;15.90;55.60;;;;;;5073330;28;20380;-65
2021/11/20 11:33:50;;;;;;;;;;;15.90;55.50;;;;;;5073118;28;19981;-65
2021/11/20 11:36:20;;;;;;;;;;;16.00;55.50;;;;;;5079712;28;20384;-65
2021/11/20 11:38:52;;;;;;;;;;;16.00;55.40;;;;;;5088070;28;19917;-66
2021/11/20 11:41:27;;;;;;;;;;;16.10;55.40;;;;;;5067015;28;19913;-65
2021/11/20 11:44:02;;;;;;;;;;;16.10;55.00;;;;;;5072373;28;20487;-65
2021/11/20 11:46:32;;;;;;;;;;;16.10;54.90;;;;;;5072542;28;20373;-65
2021/11/20 11:49:07;;;;;;;;;;;16.10;55.00;;;;;;5072351;28;19973;-65
2021/11/20 11:51:43;;;;;;;;;;;16.20;54.80;;;;;;5072425;28;20436;-64
2021/11/20 11:54:12;;;;;;;;;;;16.20;54.70;;;;;;5072270;28;20035;-65
2021/11/20 11:56:40;;;;;;;;;;;16.20;54.50;;;;;;5081273;28;19959;-65
2021/11/20 11:59:08;;;;;;;;;;;16.30;54.50;;;;;;5092777;28;19908;-65
2021/11/20 12:02:03;;;;;;;;;;;16.30;54.50;;;;;;5092406;28;19908;-65
2021/11/20 12:04:28;;;;;;;;;;;16.40;54.50;;;;;;5078917;28;20799;-65
2021/11/20 12:07:20;;;;;;;;;;;16.40;53.70;;;;;;5080578;28;19998;-65
2021/11/20 12:09:48;;;;;;;;;;;16.40;53.50;;;;;;5069613;28;19995;-65
2021/11/20 12:12:26;;;;;;;;;;;16.30;53.60;;;;;;5071684;28;19909;-64
2021/11/20 12:14:52;;;;;;;;;;;16.30;53.50;;;;;;5003135;28;1951540;-64
2021/11/20 12:17:26;;;;;;;;;;;16.30;53.40;;;;;;5075763;28;19913;-64
2021/11/20 12:20:13;;;;;;;;;;;16.30;53.30;;;;;;5072034;28;20305;-65
2021/11/20 12:22:53;;;;;;;;;;;16.40;53.20;;;;;;5057815;28;19962;-64
2021/11/20 12:25:25;;;;;;;;;;;16.30;52.90;;;;;;5073478;28;20346;-66
2021/11/20 12:27:52;;;;;;;;;;;16.30;52.80;;;;;;5069057;28;19920;-65
2021/11/20 12:30:33;;;;;;;;;;;16.30;52.90;;;;;;5063844;28;19908;-65
2021/11/20 12:33:13;;;;;;;;;;;16.20;52.70;;;;;;5072437;28;20278;-65
2021/11/20 12:35:51;;;;;;;;;;;16.30;52.70;;;;;;5072311;28;19912;-65
2021/11/20 12:38:36;;;;;;;;;;;16.30;52.90;;;;;;5076432;28;20259;-65
2021/11/20 12:41:04;;;;;;;;;;;16.30;53.00;;;;;;5076114;28;19920;-65
2021/11/20 12:43:45;;;;;;;;;;;16.30;52.80;;;;;;5065081;28;19921;-66
2021/11/20 12:46:14;;;;;;;;;;;16.40;52.80;;;;;;5076250;28;20323;-65
2021/11/20 12:48:59;;;;;;;;;;;16.40;52.80;;;;;;5092792;28;20007;-65
2021/11/20 12:51:32;;;;;;;;;;;16.40;52.50;;;;;;5082743;28;19916;-66
2021/11/20 12:54:17;;;;;;;;;;;16.40;52.40;;;;;;5072310;28;19999;-66
2021/11/20 12:56:43;;;;;;;;;;;16.50;52.40;;;;;;5072584;28;20286;-66
2021/11/20 12:59:19;;;;;;;;;;;16.40;51.90;;;;;;5072286;28;19912;-65
2021/11/20 13:01:56;;;;;;;;;;;16.40;51.70;;;;;;5078139;28;19927;-65
2021/11/20 13:04:42;;;;;;;;;;;16.40;51.90;;;;;;5076582;28;20354;-65
2021/11/20 13:07:20;;;;;;;;;;;16.40;51.60;;;;;;5071463;28;19913;-65
2021/11/20 13:09:49;;;;;;;;;;;16.30;51.40;;;;;;5072050;28;19909;-65
2021/11/20 13:12:25;;;;;;;;;;;16.30;51.50;;;;;;5074962;28;19916;-66
2021/11/20 13:15:12;;;;;;;;;;;16.20;51.50;;;;;;5071824;28;19966;-65
2021/11/20 13:17:52;;;;;;;;;;;16.20;51.20;;;;;;5072471;28;19923;-66
2021/11/20 13:20:27;;;;;;;;;;;16.10;51.00;;;;;;5071901;28;19908;-65
2021/11/20 13:23:02;;;;;;;;;;;16.00;50.90;;;;;;5071388;28;20255;-66
2021/11/20 13:25:28;;;;;;;;;;;15.90;51.00;;;;;;5071702;28;19999;-66
2021/11/20 13:27:57;;;;;;;;;;;15.90;51.00;;;;;;5067327;28;20430;-64
2021/11/20 13:30:25;;;;;;;;;;;15.80;51.20;;;;;;5074865;28;20535;-65
2021/11/20 13:32:52;;;;;;;;;;;15.80;51.00;;;;;;5074508;28;20311;-64
2021/11/20 13:35:29;;;;;;;;;;;15.80;51.00;;;;;;5071572;28;19928;-65
2021/11/20 13:37:57;;;;;;;;;;;15.70;51.10;;;;;;5069618;28;19913;-65
2021/11/20 13:40:27;;;;;;;;;;;15.70;50.90;;;;;;5075257;28;20014;-65
2021/11/20 13:42:53;;;;;;;;;;;15.60;50.90;;;;;;5070021;28;19915;-66
2021/11/20 13:45:19;;;;;;;;;;;15.60;51.00;;;;;;5071467;28;19909;-65
2021/11/20 13:47:47;;;;;;;;;;;15.50;50.90;;;;;;5077283;28;19935;-65
2021/11/20 13:50:13;;;;;;;;;;;15.50;50.90;;;;;;5091653;28;19916;-65
2021/11/20 13:52:39;;;;;;;;;;;15.50;51.00;;;;;;5091303;28;19946;-65
2021/11/20 13:55:05;;;;;;;;;;;15.40;51.10;;;;;;5091359;28;19912;-65
2021/11/20 13:57:32;;;;;;;;;;;15.40;51.80;;;;;;5088265;28;19915;-65
2021/11/20 14:00:05;;;;;;;;;;;15.40;51.20;;;;;;5091293;28;19916;-65
2021/11/20 14:02:31;;;;;;;;;;;15.30;51.20;;;;;;5091435;28;19955;-66
2021/11/20 14:05:01;;;;;;;;;;;15.30;51.20;;;;;;5091477;28;19955;-65
2021/11/20 14:07:34;;;;;;;;;;;15.30;51.20;;;;;;5081225;28;19962;-66
2021/11/20 14:10:02;;;;;;;;;;;15.20;51.30;;;;;;5071345;28;19912;-66
2021/11/20 14:12:49;;;;;;;;;;;15.20;51.30;;;;;;5071623;28;19909;-65
2021/11/20 14:15:15;;;;;;;;;;;15.10;51.30;;;;;;5071152;28;19986;-66
2021/11/20 14:17:41;;;;;;;;;;;15.10;51.30;;;;;;5063888;28;19952;-65
2021/11/20 14:20:10;;;;;;;;;;;15.10;51.30;;;;;;5071275;28;19909;-66
2021/11/20 14:22:38;;;;;;;;;;;15.10;51.30;;;;;;5070896;28;19908;-64
2021/11/20 14:25:06;;;;;;;;;;;15.00;51.30;;;;;;5070867;28;19912;-65
2021/11/20 14:27:32;;;;;;;;;;;15.00;51.30;;;;;;5062910;28;19912;-65
2021/11/20 14:29:57;;;;;;;;;;;14.90;51.40;;;;;;5085875;28;19969;-64
2021/11/20 14:32:23;;;;;;;;;;;14.90;51.40;;;;;;5078513;28;20282;-64